createdAt,value
2019-01-15T00:01:49.584Z,82.80
2019-01-15T00:04:20.510Z,81.80
2019-01-15T00:06:51.430Z,82.87
2019-01-15T00:09:22.154Z,83.44
2019-01-15T00:11:53.030Z,83.82
2019-01-15T00:14:23.861Z,83.64
2019-01-15T00:16:54.539Z,84.13
2019-01-15T00:19:25.426Z,84.28
2019-01-15T00:21:56.108Z,84.05
2019-01-15T00:24:26.863Z,84.23
2019-01-15T00:26:57.406Z,84.12
2019-01-15T00:29:27.877Z,84.17
2019-01-15T00:31:58.388Z,84.63
2019-01-15T00:34:28.877Z,84.66
2019-01-15T00:36:59.473Z,85.03
2019-01-15T00:39:29.945Z,85.05
2019-01-15T00:42:00.465Z,85.02
2019-01-15T00:44:30.996Z,85.00
2019-01-15T00:47:01.765Z,84.94
2019-01-15T00:49:32.239Z,84.97
2019-01-15T00:52:02.825Z,85.07
2019-01-15T00:54:33.296Z,85.19
2019-01-15T00:57:03.925Z,85.37
2019-01-15T00:59:34.477Z,85.20
2019-01-15T01:02:05.165Z,84.99
2019-01-15T01:04:35.737Z,85.07
2019-01-15T01:07:06.541Z,85.41
2019-01-15T01:09:37.001Z,85.76
2019-01-15T01:12:07.537Z,85.96
2019-01-15T01:14:38.062Z,85.69
2019-01-15T01:17:08.578Z,85.48
2019-01-15T01:19:39.113Z,85.52
2019-01-15T01:22:09.709Z,85.46
2019-01-15T01:24:40.212Z,85.49
2019-01-15T01:27:10.846Z,85.61
2019-01-15T01:29:41.321Z,86.06
2019-01-15T01:32:12.551Z,86.25
2019-01-15T01:34:43.020Z,86.25
2019-01-15T01:37:13.575Z,85.90
2019-01-15T01:39:44.059Z,84.63
2019-01-15T01:42:14.673Z,83.84
2019-01-15T01:44:45.465Z,84.99
2019-01-15T01:47:16.403Z,85.19
2019-01-15T01:49:47.032Z,85.18
2019-01-15T01:52:17.818Z,85.15
2019-01-15T01:54:48.606Z,85.10
2019-01-15T01:57:19.518Z,85.16
2019-01-15T01:59:50.339Z,85.17
2019-01-15T02:02:21.242Z,85.19
2019-01-15T02:04:51.715Z,85.43
2019-01-15T02:07:22.426Z,85.61
2019-01-15T02:09:52.895Z,85.80
2019-01-15T02:12:23.531Z,85.77
2019-01-15T02:14:54.115Z,85.80
2019-01-15T02:17:24.652Z,85.67
2019-01-15T02:19:55.139Z,85.54
2019-01-15T02:22:25.684Z,85.60
2019-01-15T02:24:56.164Z,85.47
2019-01-15T02:27:27.972Z,85.59
2019-01-15T02:29:58.444Z,85.52
2019-01-15T02:32:29.013Z,85.42
2019-01-15T02:34:59.499Z,85.94
2019-01-15T02:37:30.599Z,86.22
2019-01-15T02:40:01.504Z,86.35
2019-01-15T02:42:32.190Z,86.00
2019-01-15T02:45:02.835Z,85.80
2019-01-15T02:47:34.350Z,85.97
2019-01-15T02:50:05.944Z,86.06
2019-01-15T02:52:36.754Z,85.99
2019-01-15T02:55:08.542Z,86.31
2019-01-15T02:57:39.322Z,86.09
2019-01-15T03:00:16.759Z,86.13
2019-01-15T03:02:47.967Z,86.10
2019-01-15T03:05:19.054Z,85.67
2019-01-15T03:07:50.348Z,85.68
2019-01-15T03:10:21.770Z,84.69
2019-01-15T03:12:56.412Z,84.80
2019-01-15T03:15:26.387Z,84.07
2019-01-15T03:17:57.315Z,84.20
2019-01-15T03:20:28.096Z,83.62
2019-01-15T03:22:58.878Z,83.72
2019-01-15T03:25:29.628Z,84.05
2019-01-15T03:28:00.554Z,84.42
2019-01-15T03:30:31.404Z,84.41
2019-01-15T03:33:02.300Z,84.83
2019-01-15T03:35:33.073Z,84.88
2019-01-15T03:38:03.973Z,84.84
2019-01-15T03:40:34.890Z,84.95
2019-01-15T03:43:05.961Z,85.27
2019-01-15T03:45:36.736Z,85.19
2019-01-15T03:48:08.003Z,85.14
2019-01-15T03:50:38.650Z,85.28
2019-01-15T03:53:09.722Z,85.33
2019-01-15T03:55:40.515Z,85.14
2019-01-15T03:58:11.267Z,85.10
2019-01-15T04:00:42.162Z,84.98
2019-01-15T04:03:13.430Z,84.93
2019-01-15T04:05:44.172Z,84.78
2019-01-15T04:08:15.456Z,84.73
2019-01-15T04:10:46.221Z,84.86
2019-01-15T04:13:17.381Z,84.97
2019-01-15T04:15:48.137Z,84.91
2019-01-15T04:18:18.919Z,84.94
2019-01-15T04:20:49.709Z,84.70
2019-01-15T04:23:20.564Z,84.81
2019-01-15T04:25:51.440Z,84.77
2019-01-15T04:28:22.243Z,84.70
2019-01-15T04:30:53.020Z,84.75
2019-01-15T04:33:24.103Z,84.63
2019-01-15T04:35:55.022Z,84.94
2019-01-15T04:38:25.814Z,84.92
2019-01-15T04:40:56.593Z,84.95
2019-01-15T04:43:27.352Z,84.97
2019-01-15T04:45:58.026Z,84.90
2019-01-15T04:48:29.018Z,85.32
2019-01-15T04:51:00.007Z,85.20
2019-01-15T04:53:30.544Z,85.26
2019-01-15T04:56:01.114Z,85.55
2019-01-15T04:58:31.646Z,85.77
2019-01-15T05:01:02.114Z,85.77
2019-01-15T05:03:33.014Z,85.65
2019-01-15T05:06:03.613Z,85.44
2019-01-15T05:08:34.264Z,85.23
2019-01-15T05:11:04.742Z,85.00
2019-01-15T05:13:35.267Z,84.84
2019-01-15T05:16:05.733Z,84.70
2019-01-15T05:18:36.282Z,84.61
2019-01-15T05:21:06.762Z,84.58
2019-01-15T05:23:37.866Z,84.58
2019-01-15T05:26:08.784Z,84.24
2019-01-15T05:28:39.776Z,84.57
2019-01-15T05:31:10.619Z,84.27
2019-01-15T05:33:41.427Z,84.06
2019-01-15T05:36:12.186Z,84.14
2019-01-15T05:38:42.969Z,84.26
2019-01-15T05:41:13.653Z,84.64
2019-01-15T05:43:44.532Z,84.83
2019-01-15T05:46:15.172Z,84.64
2019-01-15T05:48:46.462Z,84.74
2019-01-15T05:51:30.942Z,85.11
2019-01-15T05:54:01.505Z,85.24
2019-01-15T05:56:33.352Z,85.33
2019-01-15T05:59:04.249Z,85.48
2019-01-15T06:01:35.107Z,85.71
2019-01-15T06:04:06.370Z,85.66
2019-01-15T06:06:37.119Z,85.64
2019-01-15T06:09:10.428Z,85.69
2019-01-15T06:11:41.215Z,85.68
2019-01-15T06:14:11.801Z,85.61
2019-01-15T06:16:42.269Z,85.60
2019-01-15T06:19:16.336Z,85.52
2019-01-15T06:21:47.263Z,85.49
2019-01-15T06:24:18.234Z,85.42
2019-01-15T06:26:49.257Z,85.43
2019-01-15T06:29:20.286Z,85.53
2019-01-15T06:31:51.216Z,85.59
2019-01-15T06:34:22.313Z,85.68
2019-01-15T06:36:53.082Z,85.70
2019-01-15T06:39:24.085Z,85.69
2019-01-15T06:41:54.966Z,85.73
2019-01-15T06:44:26.031Z,85.89
2019-01-15T06:46:56.964Z,85.83
2019-01-15T06:49:28.045Z,85.73
2019-01-15T06:51:58.927Z,85.63
2019-01-15T06:54:29.834Z,85.22
2019-01-15T06:57:00.711Z,85.42
2019-01-15T06:59:31.613Z,85.58
2019-01-15T07:02:02.394Z,85.50
2019-01-15T07:04:33.387Z,85.39
2019-01-15T07:07:04.461Z,85.58
2019-01-15T07:09:35.446Z,85.72
2019-01-15T07:12:06.589Z,85.72
2019-01-15T07:14:37.627Z,85.69
2019-01-15T07:17:08.438Z,85.89
2019-01-15T07:19:39.593Z,85.83
2019-01-15T07:22:10.407Z,86.04
2019-01-15T07:24:41.374Z,86.16
2019-01-15T07:27:12.178Z,86.17
2019-01-15T07:29:43.082Z,86.01
2019-01-15T07:32:14.069Z,86.06
2019-01-15T07:34:45.150Z,86.13
2019-01-15T07:37:16.027Z,86.12
2019-01-15T07:39:46.977Z,85.95
2019-01-15T07:42:17.928Z,86.05
2019-01-15T07:44:48.921Z,85.81
2019-01-15T07:47:19.810Z,85.88
2019-01-15T07:49:50.746Z,86.07
2019-01-15T07:52:21.724Z,85.48
2019-01-15T07:54:52.958Z,85.26
2019-01-15T07:57:23.658Z,84.78
2019-01-15T07:59:54.543Z,84.63
2019-01-15T08:02:25.320Z,84.75
2019-01-15T08:04:56.379Z,84.75
2019-01-15T08:07:27.197Z,84.99
2019-01-15T08:09:58.097Z,85.33
2019-01-15T08:12:28.882Z,85.58
2019-01-15T08:15:00.100Z,85.84
2019-01-15T08:17:30.945Z,85.87
2019-01-15T08:20:01.831Z,85.69
2019-01-15T08:22:32.638Z,85.71
2019-01-15T08:25:05.139Z,85.59
2019-01-15T08:27:35.998Z,85.42
2019-01-15T08:30:12.916Z,85.39
2019-01-15T08:32:43.918Z,85.50
2019-01-15T08:35:15.798Z,85.46
2019-01-15T08:37:46.861Z,85.61
2019-01-15T08:40:17.812Z,85.67
2019-01-15T08:42:49.366Z,85.81
2019-01-15T08:45:20.494Z,86.02
2019-01-15T08:47:53.314Z,86.03
2019-01-15T08:50:26.685Z,85.98
2019-01-15T08:52:57.668Z,86.14
2019-01-15T08:55:28.446Z,86.26
2019-01-15T08:57:59.428Z,86.11
2019-01-15T09:00:30.426Z,86.39
2019-01-15T09:03:01.584Z,85.69
2019-01-15T09:05:32.528Z,85.61
2019-01-15T09:08:03.592Z,85.20
2019-01-15T09:10:34.571Z,84.70
2019-01-15T09:13:05.780Z,84.46
2019-01-15T09:15:36.564Z,83.41
2019-01-15T09:18:07.847Z,83.58
2019-01-15T09:20:38.748Z,83.25
2019-01-15T09:23:09.562Z,82.87
2019-01-15T09:25:40.441Z,83.34
2019-01-15T09:28:11.422Z,82.70
2019-01-15T09:30:42.301Z,82.66
2019-01-15T09:33:13.345Z,82.55
2019-01-15T09:35:44.191Z,82.53
2019-01-15T09:38:15.573Z,82.12
2019-01-15T09:40:46.460Z,82.14
2019-01-15T09:43:17.546Z,81.93
2019-01-15T09:45:48.358Z,82.15
2019-01-15T09:48:24.237Z,82.11
2019-01-15T09:50:55.206Z,81.88
2019-01-15T09:53:26.126Z,81.56
2019-01-15T09:55:58.122Z,81.22
2019-01-15T09:58:29.301Z,80.62
2019-01-15T10:01:00.238Z,81.18
2019-01-15T10:03:31.235Z,81.44
2019-01-15T10:06:02.099Z,81.43
2019-01-15T10:08:33.068Z,80.92
2019-01-15T10:11:03.970Z,80.82
2019-01-15T10:13:34.971Z,80.64
2019-01-15T10:16:06.074Z,80.40
2019-01-15T10:18:37.049Z,80.10
2019-01-15T10:21:07.750Z,79.56
2019-01-15T10:23:38.724Z,79.89
2019-01-15T10:26:09.418Z,79.86
2019-01-15T10:28:40.701Z,78.73
2019-01-15T10:31:51.425Z,79.48
2019-01-15T10:34:27.074Z,78.41
2019-01-15T10:36:55.862Z,79.04
2019-01-15T10:39:26.826Z,78.85
2019-01-15T10:41:57.797Z,79.81
2019-01-15T10:44:28.587Z,78.47
2019-01-15T10:46:59.847Z,78.53
2019-01-15T10:49:30.756Z,79.01
2019-01-15T10:52:02.214Z,77.76
2019-01-15T10:54:33.047Z,78.43
2019-01-15T10:57:04.034Z,78.55
2019-01-15T10:59:36.099Z,78.71
2019-01-15T11:02:06.980Z,78.53
2019-01-15T11:04:37.916Z,77.69
2019-01-15T11:07:08.969Z,78.14
2019-01-15T11:09:39.814Z,77.44
2019-01-15T11:12:10.758Z,77.04
2019-01-15T11:14:42.101Z,77.22
2019-01-15T11:17:13.027Z,76.54
2019-01-15T11:19:43.872Z,76.03
2019-01-15T11:22:14.852Z,76.29
2019-01-15T11:24:45.758Z,76.78
2019-01-15T11:27:16.604Z,76.00
2019-01-15T11:29:47.479Z,75.07
2019-01-15T11:32:18.246Z,75.90
2019-01-15T11:34:49.150Z,75.44
2019-01-15T11:37:20.130Z,75.06
2019-01-15T11:39:51.033Z,75.30
2019-01-15T11:42:21.917Z,75.12
2019-01-15T11:44:52.901Z,74.18
2019-01-15T11:47:23.576Z,74.12
2019-01-15T11:49:54.620Z,73.26
2019-01-15T11:52:25.369Z,74.53
2019-01-15T11:54:56.638Z,74.03
2019-01-15T11:57:27.529Z,74.66
2019-01-15T11:59:58.797Z,73.39
2019-01-15T12:03:03.719Z,74.39
2019-01-15T12:05:56.266Z,74.22
2019-01-15T12:08:45.122Z,73.45
2019-01-15T12:11:33.879Z,73.13
2019-01-15T12:14:18.540Z,73.04
2019-01-15T12:17:17.640Z,73.11
2019-01-15T12:20:22.585Z,72.40
2019-01-15T12:23:15.529Z,73.70
2019-01-15T12:25:57.037Z,74.08
2019-01-15T12:28:40.857Z,72.08
2019-01-15T12:31:34.016Z,72.64
2019-01-15T12:34:24.104Z,72.71
2019-01-15T12:37:12.862Z,73.06
2019-01-15T12:40:02.129Z,72.42
2019-01-15T12:43:10.661Z,71.65
2019-01-15T12:45:59.713Z,72.38
2019-01-15T12:48:48.171Z,72.51
2019-01-15T12:51:32.721Z,72.54
2019-01-15T12:54:26.602Z,73.16
2019-01-15T12:57:19.316Z,72.10
2019-01-15T13:00:05.653Z,71.14
2019-01-15T13:03:02.080Z,71.28
2019-01-15T13:05:58.008Z,71.41
2019-01-15T13:08:57.206Z,71.72
2019-01-15T13:11:53.130Z,71.27
2019-01-15T13:14:45.984Z,70.31
2019-01-15T13:17:38.732Z,72.05
2019-01-15T13:20:29.742Z,72.45
2019-01-15T13:23:11.145Z,71.07
2019-01-15T13:25:59.779Z,71.38
2019-01-15T13:29:01.865Z,71.07
2019-01-15T13:31:50.502Z,71.10
2019-01-15T13:34:40.385Z,70.54
2019-01-15T13:37:28.732Z,70.10
2019-01-15T13:40:24.451Z,70.25
2019-01-15T13:43:13.002Z,70.85
2019-01-15T13:46:09.340Z,69.17
2019-01-15T13:48:57.990Z,70.42
2019-01-15T13:51:53.819Z,70.00
2019-01-15T13:54:41.135Z,70.41
2019-01-15T13:57:29.835Z,70.35
2019-01-15T14:00:18.136Z,69.46
2019-01-15T14:03:13.857Z,70.65
2019-01-15T14:06:09.678Z,70.73
2019-01-15T14:09:14.784Z,71.00
2019-01-15T14:12:05.167Z,70.02
2019-01-15T14:14:53.662Z,70.37
2019-01-15T14:17:47.846Z,69.24
2019-01-15T14:20:46.335Z,68.44
2019-01-15T14:23:33.143Z,67.64
2019-01-15T14:26:23.024Z,67.75
2019-01-15T14:29:13.009Z,68.02
2019-01-15T14:32:01.765Z,66.86
2019-01-15T14:35:10.741Z,68.25
2019-01-15T14:38:12.175Z,66.81
2019-01-15T14:41:07.579Z,68.25
2019-01-15T14:43:55.844Z,67.53
2019-01-15T14:46:40.004Z,66.68
2019-01-15T14:49:32.278Z,67.10
2019-01-15T14:52:35.029Z,65.27
2019-01-15T14:55:31.580Z,66.23
2019-01-15T14:58:30.324Z,66.15
2019-01-15T15:01:25.521Z,66.13
2019-01-15T15:04:14.997Z,66.15
2019-01-15T15:07:00.385Z,67.71
2019-01-15T15:09:48.285Z,68.03
2019-01-15T15:12:46.966Z,67.51
2019-01-15T15:15:35.884Z,65.33
2019-01-15T15:18:28.129Z,66.29
2019-01-15T15:21:23.773Z,68.08
2019-01-15T15:24:11.831Z,66.79
2019-01-15T15:27:10.452Z,67.92
2019-01-15T15:30:17.993Z,67.95
2019-01-15T15:33:16.440Z,67.21
2019-01-15T15:36:05.877Z,66.91
2019-01-15T15:38:58.000Z,68.03
2019-01-15T15:41:56.490Z,68.04
2019-01-15T15:45:04.061Z,69.73
2019-01-15T15:47:51.143Z,69.46
2019-01-15T15:50:32.829Z,69.79
2019-01-15T15:53:28.282Z,72.75
2019-01-15T15:56:16.729Z,73.14
2019-01-15T15:59:21.220Z,74.15
2019-01-15T16:02:08.181Z,74.82
2019-01-15T16:04:56.644Z,74.94
2019-01-15T16:07:44.962Z,75.34
2019-01-15T16:10:27.040Z,75.77
2019-01-15T16:13:15.525Z,75.74
2019-01-15T16:16:03.817Z,76.43
2019-01-15T16:18:56.065Z,76.57
2019-01-15T16:22:03.780Z,76.26
2019-01-15T16:24:53.353Z,76.60
2019-01-15T16:27:42.793Z,76.88
2019-01-15T16:30:33.613Z,76.71
2019-01-15T16:33:32.206Z,76.63
2019-01-15T16:36:29.138Z,74.09
2019-01-15T16:39:27.963Z,71.80
2019-01-15T16:42:20.674Z,73.25
2019-01-15T16:45:09.329Z,71.30
2019-01-15T16:48:14.877Z,72.59
2019-01-15T16:50:58.412Z,73.72
2019-01-15T16:53:49.011Z,74.53
2019-01-15T16:56:44.895Z,73.15
2019-01-15T16:59:41.270Z,71.82
2019-01-15T17:02:29.721Z,73.70
2019-01-15T17:05:37.726Z,71.22
2019-01-15T17:08:39.559Z,73.07
2019-01-15T17:11:39.304Z,72.44
2019-01-15T17:14:27.470Z,73.04
2019-01-15T17:17:15.795Z,72.45
2019-01-15T17:20:14.480Z,74.60
2019-01-15T17:23:01.498Z,75.21
2019-01-15T17:25:49.858Z,75.30
2019-01-15T17:28:34.811Z,75.26
2019-01-15T17:31:23.670Z,75.28
2019-01-15T17:34:20.107Z,76.38
2019-01-15T17:37:28.320Z,76.76
2019-01-15T17:40:29.830Z,76.87
2019-01-15T17:43:20.679Z,77.83
2019-01-15T17:46:11.908Z,78.58
2019-01-15T17:49:04.441Z,78.86
2019-01-15T17:51:52.889Z,78.55
2019-01-15T17:54:40.723Z,79.01
2019-01-15T17:57:36.648Z,78.04
2019-01-15T18:00:37.906Z,79.01
2019-01-15T18:03:39.661Z,79.12
2019-01-15T18:06:35.276Z,79.54
2019-01-15T18:09:36.773Z,79.35
2019-01-15T18:12:22.003Z,79.18
2019-01-15T18:15:17.953Z,79.41
2019-01-15T18:18:07.713Z,79.62
2019-01-15T18:20:46.430Z,79.78
2019-01-15T18:23:45.183Z,79.64
2019-01-15T18:26:50.157Z,80.01
2019-01-15T18:29:27.342Z,79.95
2019-01-15T18:32:00.003Z,80.44
2019-01-15T18:35:03.245Z,80.62
2019-01-15T18:37:53.125Z,80.64
2019-01-15T18:40:41.332Z,80.95
2019-01-15T18:43:29.706Z,80.47
2019-01-15T18:46:37.522Z,80.61
2019-01-15T18:49:36.022Z,80.69
2019-01-15T18:52:31.657Z,80.62
2019-01-15T18:55:30.194Z,80.62
2019-01-15T18:58:15.783Z,80.58
2019-01-15T19:01:05.546Z,80.73
2019-01-15T19:03:54.202Z,80.42
2019-01-15T19:06:47.113Z,80.58
2019-01-15T19:09:42.710Z,80.56
2019-01-15T19:12:41.395Z,80.20
2019-01-15T19:15:47.017Z,79.80
2019-01-15T19:18:45.612Z,79.73
2019-01-15T19:21:34.121Z,80.00
2019-01-15T19:24:23.725Z,79.85
2019-01-15T19:27:16.189Z,80.30
2019-01-15T19:30:20.851Z,80.26
2019-01-15T19:33:10.273Z,79.86
2019-01-15T19:36:17.888Z,79.29
2019-01-15T19:39:10.546Z,79.79
2019-01-15T19:41:59.169Z,80.12
2019-01-15T19:45:19.157Z,80.19
2019-01-15T19:48:00.609Z,79.72
2019-01-15T19:50:48.947Z,80.16
2019-01-15T19:53:44.608Z,80.25
2019-01-15T19:56:33.261Z,80.51
2019-01-15T19:59:19.872Z,80.32
2019-01-15T20:02:23.714Z,80.33
2019-01-15T20:05:12.434Z,80.28
2019-01-15T20:08:15.423Z,80.40
2019-01-15T20:11:07.763Z,80.31
2019-01-15T20:13:55.834Z,80.15
2019-01-15T20:16:44.510Z,80.45
2019-01-15T20:19:32.681Z,80.13
2019-01-15T20:22:28.828Z,80.05
2019-01-15T20:25:25.369Z,80.14
2019-01-15T20:28:14.853Z,80.09
2019-01-15T20:31:10.886Z,79.97
2019-01-15T20:33:59.602Z,79.88
2019-01-15T20:36:49.200Z,79.82
2019-01-15T20:39:48.307Z,80.09
2019-01-15T20:42:36.754Z,79.41
2019-01-15T20:45:19.771Z,79.81
2019-01-15T20:48:08.027Z,80.16
2019-01-15T20:51:03.214Z,80.03
2019-01-15T20:53:47.779Z,80.43
2019-01-15T20:56:35.993Z,80.39
2019-01-15T20:59:24.371Z,80.48
2019-01-15T21:02:05.452Z,80.36
2019-01-15T21:04:54.103Z,80.60
2019-01-15T21:07:37.944Z,80.62
2019-01-15T21:10:31.717Z,80.45
2019-01-15T21:13:17.913Z,80.68
2019-01-15T21:16:06.465Z,80.63
2019-01-15T21:18:56.449Z,80.69
2019-01-15T21:21:47.155Z,80.94
2019-01-15T21:24:46.252Z,81.18
2019-01-15T21:27:50.644Z,81.16
2019-01-15T21:30:39.637Z,80.98
2019-01-15T21:33:28.088Z,81.37
2019-01-15T21:36:16.765Z,81.55
2019-01-15T21:39:10.535Z,81.25
2019-01-15T21:41:58.729Z,81.18
2019-01-15T21:44:48.864Z,81.02
2019-01-15T21:47:40.018Z,81.02
2019-01-15T21:50:27.826Z,81.11
2019-01-15T21:53:17.297Z,81.19
2019-01-15T21:56:05.632Z,81.35
2019-01-15T21:59:01.433Z,81.61
2019-01-15T22:01:47.834Z,81.26
2019-01-15T22:04:37.925Z,81.25
2019-01-15T22:07:30.774Z,81.61
2019-01-15T22:10:28.337Z,81.80
2019-01-15T22:13:17.706Z,81.73
2019-01-15T22:16:10.663Z,82.00
2019-01-15T22:19:09.351Z,81.89
2019-01-15T22:21:59.213Z,82.02
2019-01-15T22:24:58.334Z,82.20
2019-01-15T22:27:47.089Z,82.00
2019-01-15T22:30:36.052Z,81.93
2019-01-15T22:33:35.048Z,82.06
2019-01-15T22:36:30.869Z,82.03
2019-01-15T22:39:13.254Z,82.23
2019-01-15T22:42:01.830Z,81.99
2019-01-15T22:44:41.675Z,81.61
2019-01-15T22:47:28.105Z,81.81
2019-01-15T22:50:16.526Z,81.41
2019-01-15T22:53:15.318Z,81.07
2019-01-15T22:56:08.290Z,81.25
2019-01-15T22:59:04.298Z,81.31
2019-01-15T23:02:03.519Z,81.42
2019-01-15T23:04:56.354Z,81.33
2019-01-15T23:07:45.108Z,81.49
2019-01-15T23:10:50.969Z,81.29
2019-01-15T23:13:56.007Z,81.49
2019-01-15T23:16:37.080Z,81.33
2019-01-15T23:19:25.735Z,81.31
2019-01-15T23:22:04.471Z,81.63
2019-01-15T23:24:48.195Z,81.58
2019-01-15T23:27:50.160Z,81.42
2019-01-15T23:30:58.577Z,81.32
2019-01-15T23:33:54.249Z,81.60
2019-01-15T23:36:47.868Z,81.69
2019-01-15T23:39:40.515Z,81.52
2019-01-15T23:42:21.591Z,81.41
2019-01-15T23:45:10.348Z,81.28
2019-01-15T23:48:09.509Z,81.67
2019-01-15T23:50:52.898Z,81.79
2019-01-15T23:53:48.598Z,81.44
2019-01-15T23:56:47.492Z,81.28
2019-01-15T23:59:49.981Z,81.21
